createdAt,value
2024-03-04T00:00:19.626Z,18.60
2024-03-04T00:02:46.756Z,17.90
2024-03-04T00:05:14.281Z,18.45
2024-03-04T00:07:42.102Z,18.27
2024-03-04T00:10:09.417Z,19.45
2024-03-04T00:12:36.479Z,18.23
2024-03-04T00:15:06.208Z,17.75
2024-03-04T00:17:34.726Z,18.20
2024-03-04T00:20:02.078Z,18.60
2024-03-04T00:22:29.254Z,18.85
2024-03-04T00:24:56.404Z,17.90
2024-03-04T00:27:23.580Z,18.60
2024-03-04T00:29:50.675Z,19.75
2024-03-04T00:32:17.713Z,20.33
2024-03-04T00:34:44.722Z,20.70
2024-03-04T00:37:12.178Z,20.38
2024-03-04T00:39:46.778Z,19.05
2024-03-04T00:42:13.828Z,18.52
2024-03-04T00:44:40.890Z,19.42
2024-03-04T00:47:08.068Z,19.13
2024-03-04T00:49:35.861Z,18.40
2024-03-04T00:52:03.167Z,18.42
2024-03-04T00:54:30.642Z,17.45
2024-03-04T00:56:57.788Z,18.10
2024-03-04T00:59:24.866Z,18.23
2024-03-04T01:01:51.986Z,18.45
2024-03-04T01:04:19.083Z,18.52
2024-03-04T01:06:46.169Z,18.25
2024-03-04T01:09:13.296Z,17.73
2024-03-04T01:11:40.439Z,17.67
2024-03-04T01:14:07.676Z,18.65
2024-03-04T01:16:35.038Z,17.55
2024-03-04T01:19:02.460Z,17.92
2024-03-04T01:21:29.804Z,17.95
2024-03-04T01:23:57.913Z,17.63
2024-03-04T01:26:25.084Z,16.25
2024-03-04T01:28:52.091Z,16.17
2024-03-04T01:31:19.919Z,16.58
2024-03-04T01:33:47.186Z,16.55
2024-03-04T01:36:14.374Z,16.90
2024-03-04T01:38:42.641Z,17.42
2024-03-04T01:41:09.686Z,17.25
2024-03-04T01:43:36.792Z,18.63
2024-03-04T01:46:03.993Z,17.50
2024-03-04T01:48:31.234Z,19.33
2024-03-04T01:50:58.397Z,19.17
2024-03-04T01:53:25.587Z,18.80
2024-03-04T01:55:56.918Z,17.52
2024-03-04T01:58:25.013Z,17.10
2024-03-04T02:00:52.214Z,16.92
2024-03-04T02:03:19.327Z,15.85
2024-03-04T02:05:46.679Z,15.57
2024-03-04T02:08:14.124Z,15.85
2024-03-04T02:10:41.490Z,15.77
2024-03-04T02:13:08.654Z,15.98
2024-03-04T02:15:38.660Z,15.88
2024-03-04T02:18:08.753Z,15.15
2024-03-04T02:20:40.448Z,14.85
2024-03-04T02:23:13.021Z,15.80
2024-03-04T02:25:40.699Z,16.17
2024-03-04T02:28:08.188Z,17.63
2024-03-04T02:30:35.661Z,17.73
2024-03-04T02:33:03.653Z,17.80
2024-03-04T02:35:34.496Z,19.00
2024-03-04T02:38:03.208Z,19.08
2024-03-04T02:40:30.432Z,20.73
2024-03-04T02:42:57.515Z,20.27
2024-03-04T02:45:24.655Z,22.35
2024-03-04T02:47:51.803Z,22.80
2024-03-04T02:50:18.924Z,23.35
2024-03-04T02:52:46.044Z,22.77
2024-03-04T02:55:13.199Z,22.73
2024-03-04T02:57:40.731Z,21.38
2024-03-04T03:00:08.179Z,22.83
2024-03-04T03:02:35.241Z,23.73
2024-03-04T03:05:02.278Z,24.02
2024-03-04T03:07:29.444Z,24.20
2024-03-04T03:09:56.624Z,25.88
2024-03-04T03:12:23.705Z,26.23
2024-03-04T03:14:50.771Z,28.40
2024-03-04T03:17:20.309Z,27.52
2024-03-04T03:19:47.492Z,28.30
2024-03-04T03:22:14.755Z,29.80
2024-03-04T03:24:43.002Z,29.00
2024-03-04T03:27:11.726Z,29.92
2024-03-04T03:29:38.841Z,30.08
2024-03-04T03:32:06.139Z,32.22
2024-03-04T03:34:33.269Z,31.25
2024-03-04T03:37:00.492Z,32.45
2024-03-04T03:39:27.637Z,33.85
2024-03-04T03:41:54.873Z,33.78
2024-03-04T03:44:21.920Z,36.60
2024-03-04T03:46:49.010Z,36.17
2024-03-04T03:49:16.345Z,37.85
2024-03-04T03:51:43.684Z,36.17
2024-03-04T03:54:10.805Z,39.45
2024-03-04T03:56:41.120Z,39.45
2024-03-04T03:59:08.197Z,40.40
2024-03-04T04:01:35.369Z,41.20
2024-03-04T04:04:02.472Z,40.90
2024-03-04T04:06:29.614Z,40.47
2024-03-04T04:08:56.645Z,41.35
2024-03-04T04:11:23.685Z,43.15
2024-03-04T04:13:50.946Z,42.05
2024-03-04T04:16:18.384Z,41.55
2024-03-04T04:18:45.434Z,41.75
2024-03-04T04:21:13.337Z,41.25
2024-03-04T04:23:41.710Z,42.50
2024-03-04T04:26:08.723Z,40.50
2024-03-04T04:28:35.959Z,41.25
2024-03-04T04:31:03.142Z,41.22
2024-03-04T04:33:30.360Z,41.25
2024-03-04T04:35:57.414Z,40.95
2024-03-04T04:38:25.554Z,42.53
2024-03-04T04:40:52.585Z,39.70
2024-03-04T04:43:21.691Z,38.95
2024-03-04T04:45:50.315Z,39.53
2024-03-04T04:48:17.566Z,39.15
2024-03-04T04:50:44.717Z,40.20
2024-03-04T04:53:11.914Z,39.70
2024-03-04T04:55:38.995Z,40.95
2024-03-04T04:58:06.120Z,39.65
2024-03-04T05:00:33.234Z,39.08
2024-03-04T05:03:00.502Z,39.83
2024-03-04T05:05:27.596Z,40.53
2024-03-04T05:07:55.174Z,40.45
2024-03-04T05:10:22.365Z,41.35
2024-03-04T05:12:50.012Z,41.25
2024-03-04T05:15:17.866Z,40.88
2024-03-04T05:17:44.897Z,39.47
2024-03-04T05:20:12.163Z,41.55
2024-03-04T05:22:39.929Z,41.92
2024-03-04T05:25:07.482Z,40.03
2024-03-04T05:27:34.923Z,43.45
2024-03-04T05:30:02.010Z,42.42
2024-03-04T05:32:29.068Z,42.97
2024-03-04T05:34:56.160Z,41.97
2024-03-04T05:37:23.361Z,43.25
2024-03-04T05:39:50.467Z,46.58
2024-03-04T05:42:17.538Z,42.58
2024-03-04T05:44:44.615Z,44.03
2024-03-04T05:47:11.641Z,44.65
2024-03-04T05:49:38.806Z,41.63
2024-03-04T05:52:06.373Z,43.42
2024-03-04T05:54:33.951Z,43.42
2024-03-04T05:57:01.021Z,43.63
2024-03-04T05:59:28.060Z,43.70
2024-03-04T06:01:55.243Z,42.28
2024-03-04T06:04:22.420Z,41.63
2024-03-04T06:06:49.556Z,42.38
2024-03-04T06:09:17.835Z,42.50
2024-03-04T06:11:45.098Z,42.58
2024-03-04T06:14:12.215Z,42.50
2024-03-04T06:16:39.356Z,42.67
2024-03-04T06:19:06.477Z,42.78
2024-03-04T06:21:33.541Z,41.22
2024-03-04T06:24:00.711Z,42.05
2024-03-04T06:26:27.793Z,42.22
2024-03-04T06:28:54.859Z,40.97
2024-03-04T06:31:21.922Z,42.95
2024-03-04T06:33:53.576Z,42.25
2024-03-04T06:36:22.467Z,39.75
2024-03-04T06:38:50.074Z,41.63
2024-03-04T06:41:17.144Z,42.40
2024-03-04T06:43:44.609Z,42.95
2024-03-04T06:46:11.909Z,43.67
2024-03-04T06:48:39.494Z,44.38
2024-03-04T06:51:06.760Z,41.97
2024-03-04T06:53:33.867Z,41.17
2024-03-04T06:56:00.989Z,39.90
2024-03-04T06:58:28.063Z,38.63
2024-03-04T07:00:55.819Z,38.38
2024-03-04T07:03:23.024Z,37.03
2024-03-04T07:05:50.028Z,36.45
2024-03-04T07:08:17.101Z,37.63
2024-03-04T07:10:44.436Z,36.90
2024-03-04T07:13:11.785Z,36.72
2024-03-04T07:15:38.898Z,37.13
2024-03-04T07:18:06.155Z,37.60
2024-03-04T07:20:33.289Z,37.88
2024-03-04T07:23:00.416Z,38.50
2024-03-04T07:25:27.631Z,37.00
2024-03-04T07:27:54.701Z,36.45
2024-03-04T07:30:21.798Z,35.13
2024-03-04T07:32:49.001Z,38.55
2024-03-04T07:35:16.118Z,37.35
2024-03-04T07:37:43.252Z,35.78
2024-03-04T07:40:11.591Z,37.05
2024-03-04T07:42:38.977Z,35.78
2024-03-04T07:45:07.212Z,37.08
2024-03-04T07:47:34.413Z,36.42
2024-03-04T07:50:01.880Z,36.88
2024-03-04T07:52:29.318Z,37.15
2024-03-04T07:54:56.447Z,36.97
2024-03-04T07:57:24.866Z,36.63
2024-03-04T07:59:52.801Z,37.80
2024-03-04T08:02:19.947Z,35.60
2024-03-04T08:04:47.338Z,37.00
2024-03-04T08:07:14.811Z,36.08
2024-03-04T08:09:42.014Z,36.72
2024-03-04T08:12:09.622Z,36.53
2024-03-04T08:14:41.421Z,36.95
2024-03-04T08:17:09.364Z,36.15
2024-03-04T08:19:36.639Z,37.22
2024-03-04T08:22:04.109Z,36.80
2024-03-04T08:24:31.264Z,36.30
2024-03-04T08:26:58.322Z,36.42
2024-03-04T08:29:25.529Z,37.72
2024-03-04T08:31:52.723Z,36.70
2024-03-04T08:34:20.301Z,35.83
2024-03-04T08:36:48.449Z,36.65
2024-03-04T08:39:15.593Z,35.95
2024-03-04T08:41:49.548Z,36.72
2024-03-04T08:44:16.852Z,37.53
2024-03-04T08:46:44.689Z,39.40
2024-03-04T08:49:12.210Z,37.72
2024-03-04T08:51:42.256Z,36.95
2024-03-04T08:54:09.420Z,40.38
2024-03-04T08:56:36.668Z,37.88
2024-03-04T08:59:03.765Z,36.90
2024-03-04T09:01:34.159Z,38.75
2024-03-04T09:04:01.676Z,38.97
2024-03-04T09:06:29.016Z,40.08
2024-03-04T09:08:57.742Z,37.67
2024-03-04T09:11:26.091Z,39.97
2024-03-04T09:13:53.444Z,38.22
2024-03-04T09:16:20.824Z,37.88
2024-03-04T09:18:48.039Z,38.00
2024-03-04T09:21:15.141Z,37.45
2024-03-04T09:23:42.243Z,38.05
2024-03-04T09:26:12.695Z,38.35
2024-03-04T09:31:07.046Z,35.88
2024-03-04T09:33:34.260Z,37.20
2024-03-04T09:36:01.576Z,37.38
2024-03-04T09:38:28.844Z,38.17
2024-03-04T09:40:57.327Z,37.75
2024-03-04T09:43:24.969Z,36.80
2024-03-04T09:45:52.158Z,38.03
2024-03-04T09:48:19.345Z,36.30
2024-03-04T09:50:46.435Z,36.42
2024-03-04T09:53:13.919Z,34.03
2024-03-04T09:55:41.181Z,36.88
2024-03-04T09:58:08.823Z,35.58
2024-03-04T10:00:38.157Z,34.83
2024-03-04T10:03:07.558Z,34.85
2024-03-04T10:05:34.693Z,33.10
2024-03-04T10:08:01.755Z,33.22
2024-03-04T10:10:29.009Z,33.58
2024-03-04T10:12:57.485Z,34.28
2024-03-04T10:15:25.884Z,34.17
2024-03-04T10:17:54.898Z,33.00
2024-03-04T10:20:22.256Z,32.22
2024-03-04T10:22:49.491Z,31.80
2024-03-04T10:25:16.819Z,30.85
2024-03-04T10:27:44.659Z,29.00
2024-03-04T10:30:15.372Z,31.60
2024-03-04T10:32:46.614Z,32.35
2024-03-04T10:35:14.360Z,30.65
2024-03-04T10:37:41.707Z,29.88
2024-03-04T10:40:12.396Z,29.73
2024-03-04T10:42:43.073Z,30.33
2024-03-04T10:45:10.566Z,29.13
2024-03-04T10:47:37.751Z,29.40
2024-03-04T10:50:05.481Z,26.85
2024-03-04T10:52:32.801Z,28.08
2024-03-04T10:54:59.880Z,28.08
2024-03-04T10:57:30.527Z,27.42
2024-03-04T10:59:58.815Z,26.50
2024-03-04T11:02:28.333Z,25.38
2024-03-04T11:04:55.424Z,26.05
2024-03-04T11:07:23.464Z,26.67
2024-03-04T11:09:51.686Z,25.58
2024-03-04T11:12:18.764Z,25.85
2024-03-04T11:14:48.641Z,25.85
2024-03-04T11:17:21.965Z,24.98
2024-03-04T11:19:51.399Z,25.40
2024-03-04T11:22:18.565Z,24.85
2024-03-04T11:24:47.536Z,24.02
2024-03-04T11:27:16.823Z,24.98
2024-03-04T11:29:43.931Z,25.05
2024-03-04T11:32:11.280Z,25.98
2024-03-04T11:34:57.147Z,24.27
2024-03-04T11:37:30.933Z,25.65
2024-03-04T11:39:58.757Z,25.67
2024-03-04T11:42:35.519Z,25.13
2024-03-04T11:45:03.019Z,24.55
2024-03-04T11:47:33.092Z,25.00
2024-03-04T11:50:00.286Z,24.00
2024-03-04T11:52:27.588Z,23.88
2024-03-04T11:54:55.831Z,23.92
2024-03-04T11:57:25.384Z,24.42
2024-03-04T11:59:58.972Z,24.10
2024-03-04T12:02:26.539Z,24.50
2024-03-04T12:04:56.536Z,23.90
2024-03-04T12:07:24.739Z,24.58
2024-03-04T12:10:02.067Z,23.95
2024-03-04T12:12:38.084Z,22.55
2024-03-04T12:15:07.388Z,23.52
2024-03-04T12:17:34.537Z,23.95
2024-03-04T12:20:01.845Z,23.30
2024-03-04T12:22:32.115Z,22.40
2024-03-04T12:25:03.536Z,23.75
2024-03-04T12:27:30.992Z,23.55
2024-03-04T12:30:11.551Z,23.27
2024-03-04T12:32:38.613Z,22.33
2024-03-04T12:35:14.865Z,22.70
2024-03-04T12:37:43.798Z,23.65
2024-03-04T12:40:11.136Z,23.52
2024-03-04T12:42:38.197Z,22.50
2024-03-04T12:45:08.205Z,21.55
2024-03-04T12:47:38.553Z,23.35
2024-03-04T12:50:09.190Z,22.55
2024-03-04T12:52:36.654Z,21.13
2024-03-04T12:55:04.012Z,21.67
2024-03-04T12:57:31.051Z,22.90
2024-03-04T12:59:59.521Z,20.40
2024-03-04T13:02:26.611Z,21.58
2024-03-04T13:04:54.378Z,20.92
2024-03-04T13:07:21.647Z,21.30
2024-03-04T13:09:49.949Z,19.98
2024-03-04T13:12:17.067Z,19.98
2024-03-04T13:14:44.703Z,21.77
2024-03-04T13:17:13.043Z,19.65
2024-03-04T13:19:41.134Z,21.45
2024-03-04T13:22:08.287Z,21.85
2024-03-04T13:24:35.407Z,20.00
2024-03-04T13:27:04.074Z,20.13
2024-03-04T13:29:33.069Z,20.15
2024-03-04T13:32:00.263Z,20.90
2024-03-04T13:34:27.507Z,19.52
2024-03-04T13:36:54.577Z,20.42
2024-03-04T13:39:21.648Z,20.90
2024-03-04T13:41:49.412Z,20.70
2024-03-04T13:44:16.797Z,21.10
2024-03-04T13:46:43.940Z,19.60
2024-03-04T13:49:11.365Z,20.52
2024-03-04T13:51:38.580Z,19.45
2024-03-04T13:54:05.891Z,19.00
2024-03-04T13:56:34.330Z,19.95
2024-03-04T13:59:06.876Z,19.90
2024-03-04T14:01:34.965Z,18.80
2024-03-04T14:04:02.125Z,19.85
2024-03-04T14:06:29.189Z,19.73
2024-03-04T14:08:58.469Z,19.63
2024-03-04T14:11:25.690Z,19.80
2024-03-04T14:13:52.791Z,20.73
2024-03-04T14:16:19.935Z,20.15
2024-03-04T14:18:47.074Z,19.55
2024-03-04T14:21:14.249Z,20.25
2024-03-04T14:23:41.677Z,19.27
2024-03-04T14:26:11.348Z,19.63
2024-03-04T14:28:38.734Z,19.08
2024-03-04T14:31:06.654Z,19.40
2024-03-04T14:33:33.826Z,23.88
2024-03-04T14:36:01.120Z,19.80
2024-03-04T14:38:28.255Z,17.85
2024-03-04T14:40:58.485Z,19.42
2024-03-04T14:43:25.959Z,18.95
2024-03-04T14:45:54.169Z,17.63
2024-03-04T14:48:21.476Z,19.17
2024-03-04T14:50:49.334Z,18.20
2024-03-04T14:53:16.376Z,18.05
2024-03-04T14:55:43.640Z,19.15
2024-03-04T14:58:10.839Z,17.38
2024-03-04T15:00:38.169Z,19.67
2024-03-04T15:03:05.472Z,19.05
2024-03-04T15:05:34.518Z,22.77
2024-03-04T15:08:01.777Z,19.52
2024-03-04T15:10:28.910Z,19.08
2024-03-04T15:12:55.998Z,18.65
2024-03-04T15:15:23.031Z,19.27
2024-03-04T15:17:50.351Z,17.83
2024-03-04T15:20:18.987Z,18.10
2024-03-04T15:22:46.857Z,18.55
2024-03-04T15:25:16.286Z,19.80
2024-03-04T15:27:43.498Z,18.55
2024-03-04T15:30:10.970Z,17.60
2024-03-04T15:32:38.240Z,19.73
2024-03-04T15:35:07.214Z,18.55
2024-03-04T15:37:35.113Z,18.33
2024-03-04T15:40:13.643Z,19.13
2024-03-04T15:42:41.453Z,17.85
2024-03-04T15:45:08.873Z,17.23
2024-03-04T15:47:36.079Z,17.65
2024-03-04T15:50:03.198Z,18.08
2024-03-04T15:52:30.347Z,20.48
2024-03-04T15:54:57.504Z,19.60
2024-03-04T15:57:24.637Z,17.60
2024-03-04T15:59:51.757Z,18.52
2024-03-04T16:02:19.158Z,17.42
2024-03-04T16:04:49.952Z,17.67
2024-03-04T16:07:17.245Z,18.48
2024-03-04T16:09:45.253Z,18.00
2024-03-04T16:12:12.512Z,17.50
2024-03-04T16:14:39.616Z,17.70
2024-03-04T16:17:07.130Z,18.33
2024-03-04T16:19:34.214Z,18.05
2024-03-04T16:22:01.290Z,17.85
2024-03-04T16:24:28.369Z,17.60
2024-03-04T16:26:55.527Z,17.13
2024-03-04T16:29:23.107Z,17.17
2024-03-04T16:31:50.263Z,17.00
2024-03-04T16:34:17.909Z,16.92
2024-03-04T16:36:45.279Z,18.77
2024-03-04T16:39:14.913Z,19.00
2024-03-04T16:41:42.705Z,18.80
2024-03-04T16:44:10.002Z,17.35
2024-03-04T16:46:42.420Z,17.67
2024-03-04T16:49:09.851Z,17.75
2024-03-04T16:51:37.068Z,17.10
2024-03-04T16:54:04.245Z,16.60
2024-03-04T16:56:32.781Z,16.90
2024-03-04T16:59:04.067Z,17.05
2024-03-04T17:01:36.542Z,17.05
2024-03-04T17:04:06.246Z,17.52
2024-03-04T17:06:33.531Z,16.48
2024-03-04T17:09:00.691Z,16.23
2024-03-04T17:11:27.922Z,16.40
2024-03-04T17:13:56.511Z,17.40
2024-03-04T17:16:23.723Z,16.90
2024-03-04T17:18:50.876Z,17.23
2024-03-04T17:21:18.722Z,17.50
2024-03-04T17:23:45.957Z,15.15
2024-03-04T17:26:13.171Z,16.15
2024-03-04T17:28:40.305Z,16.17
2024-03-04T17:31:07.450Z,16.50
2024-03-04T17:33:35.265Z,15.95
2024-03-04T17:36:04.805Z,15.38
2024-03-04T17:38:31.828Z,15.95
2024-03-04T17:40:58.956Z,15.43
2024-03-04T17:43:26.099Z,16.42
2024-03-04T17:45:53.211Z,15.75
2024-03-04T17:48:20.251Z,15.60
2024-03-04T17:50:47.319Z,15.52
2024-03-04T17:53:15.540Z,15.27
2024-03-04T17:55:42.934Z,14.85
2024-03-04T17:58:10.259Z,14.98
2024-03-04T18:00:37.391Z,14.90
2024-03-04T18:03:04.672Z,16.15
2024-03-04T18:05:31.698Z,14.88
2024-03-04T18:07:59.087Z,14.95
2024-03-04T18:10:26.297Z,15.48
2024-03-04T18:12:53.324Z,13.45
2024-03-04T18:15:20.776Z,13.75
2024-03-04T18:17:47.867Z,14.30
2024-03-04T18:20:15.048Z,15.05
2024-03-04T18:22:42.198Z,14.63
2024-03-04T18:25:09.447Z,15.25
2024-03-04T18:27:36.723Z,14.13
2024-03-04T18:30:04.159Z,13.82
2024-03-04T18:32:31.355Z,15.15
2024-03-04T18:34:58.672Z,14.02
2024-03-04T18:37:25.952Z,14.48
2024-03-04T18:39:53.064Z,14.05
2024-03-04T18:42:20.269Z,15.52
2024-03-04T18:44:48.690Z,15.20
2024-03-04T18:47:15.963Z,14.25
2024-03-04T18:49:43.172Z,15.73
2024-03-04T18:52:10.243Z,14.75
2024-03-04T18:54:37.356Z,15.18
2024-03-04T18:57:04.917Z,14.52
2024-03-04T18:59:32.160Z,13.85
2024-03-04T19:02:00.364Z,15.10
2024-03-04T19:04:28.046Z,14.82
2024-03-04T19:06:55.168Z,15.25
2024-03-04T19:09:24.214Z,15.25
2024-03-04T19:11:52.229Z,15.88
2024-03-04T19:14:19.342Z,15.52
2024-03-04T19:16:46.615Z,15.40
2024-03-04T19:19:13.880Z,17.42
2024-03-04T19:21:40.959Z,15.52
2024-03-04T19:24:08.136Z,17.02
2024-03-04T19:26:35.266Z,16.60
2024-03-04T19:29:02.611Z,16.48
2024-03-04T19:31:29.718Z,16.58
2024-03-04T19:33:57.642Z,17.83
2024-03-04T19:36:24.729Z,17.48
2024-03-04T19:38:51.870Z,17.25
2024-03-04T19:41:23.043Z,17.80
2024-03-04T19:43:50.564Z,17.52
2024-03-04T19:46:24.216Z,17.27
2024-03-04T19:48:52.563Z,17.55
2024-03-04T19:51:22.655Z,16.75
2024-03-04T19:53:50.549Z,17.65
2024-03-04T19:56:17.909Z,16.20
2024-03-04T19:58:47.997Z,17.25
2024-03-04T20:01:15.382Z,17.10
2024-03-04T20:03:42.709Z,16.73
2024-03-04T20:06:10.092Z,17.77
2024-03-04T20:08:37.134Z,17.92
2024-03-04T20:11:04.834Z,17.35
2024-03-04T20:13:46.542Z,17.48
2024-03-04T20:16:17.057Z,17.02
2024-03-04T20:18:44.405Z,17.65
2024-03-04T20:21:12.735Z,16.70
2024-03-04T20:23:41.750Z,17.23
2024-03-04T20:26:08.900Z,16.77
2024-03-04T20:28:36.108Z,17.25
2024-03-04T20:31:03.681Z,16.58
2024-03-04T20:33:31.251Z,17.65
2024-03-04T20:35:58.397Z,17.85
2024-03-04T20:38:25.466Z,17.30
2024-03-04T20:40:54.313Z,17.52
2024-03-04T20:43:21.635Z,17.23
2024-03-04T20:45:48.888Z,16.85
2024-03-04T20:48:18.439Z,17.77
2024-03-04T20:50:46.396Z,17.20
2024-03-04T20:53:13.517Z,17.60
2024-03-04T20:55:40.747Z,18.05
2024-03-04T20:58:07.908Z,17.10
2024-03-04T21:00:35.931Z,16.73
2024-03-04T21:03:03.288Z,17.77
2024-03-04T21:05:30.453Z,15.95
2024-03-04T21:07:57.644Z,16.45
2024-03-04T21:10:25.485Z,17.30
2024-03-04T21:12:53.340Z,16.73
2024-03-04T21:15:20.682Z,17.33
2024-03-04T21:17:48.616Z,15.75
2024-03-04T21:20:16.211Z,16.58
2024-03-04T21:22:44.012Z,17.90
2024-03-04T21:25:11.878Z,17.23
2024-03-04T21:27:39.113Z,16.60
2024-03-04T21:30:07.670Z,16.38
2024-03-04T21:32:35.181Z,16.88
2024-03-04T21:35:02.393Z,15.73
2024-03-04T21:37:32.250Z,17.23
2024-03-04T21:40:01.230Z,17.83
2024-03-04T21:42:28.799Z,17.63
2024-03-04T21:44:56.390Z,18.30
2024-03-04T21:47:23.694Z,17.00
2024-03-04T21:49:51.624Z,16.35
2024-03-04T21:52:18.956Z,17.02
2024-03-04T21:54:46.105Z,17.40
2024-03-04T21:57:13.176Z,17.48
2024-03-04T21:59:40.449Z,17.42
2024-03-04T22:02:07.708Z,17.98
2024-03-04T22:04:34.929Z,17.73
2024-03-04T22:07:02.135Z,17.90
2024-03-04T22:09:29.246Z,16.80
2024-03-04T22:11:56.424Z,16.50
2024-03-04T22:14:23.589Z,17.77
2024-03-04T22:16:50.927Z,18.30
2024-03-04T22:19:19.956Z,19.48
2024-03-04T22:21:47.073Z,19.38
2024-03-04T22:24:14.236Z,18.42
2024-03-04T22:26:41.405Z,19.13
2024-03-04T22:29:10.177Z,19.08
2024-03-04T22:31:42.045Z,18.83
2024-03-04T22:34:10.024Z,17.65
2024-03-04T22:36:43.741Z,20.50
2024-03-04T22:39:10.881Z,19.08
2024-03-04T22:41:47.001Z,20.17
2024-03-04T22:44:14.418Z,20.30
2024-03-04T22:46:41.704Z,21.60
2024-03-04T22:49:09.023Z,20.15
2024-03-04T22:51:36.075Z,20.60
2024-03-04T22:54:03.473Z,21.35
2024-03-04T22:56:30.784Z,21.67
2024-03-04T22:58:59.679Z,22.63
2024-03-04T23:01:30.946Z,21.88
2024-03-04T23:03:58.443Z,21.65
2024-03-04T23:06:25.631Z,22.50
2024-03-04T23:08:52.778Z,21.35
2024-03-04T23:11:20.306Z,23.42
2024-03-04T23:13:47.654Z,22.00
2024-03-04T23:16:14.969Z,23.25
2024-03-04T23:18:42.892Z,22.35
2024-03-04T23:21:10.768Z,23.33
2024-03-04T23:23:38.316Z,23.67
2024-03-04T23:26:06.015Z,23.40
2024-03-04T23:28:33.672Z,22.30
2024-03-04T23:31:00.960Z,23.27
2024-03-04T23:33:28.272Z,23.42
2024-03-04T23:35:56.123Z,24.08
2024-03-04T23:38:25.475Z,23.15
2024-03-04T23:40:53.990Z,23.73
2024-03-04T23:43:22.128Z,23.65
2024-03-04T23:45:51.598Z,25.08
2024-03-04T23:48:20.028Z,24.27
2024-03-04T23:50:48.065Z,25.25
2024-03-04T23:53:15.344Z,25.73
2024-03-04T23:55:42.618Z,25.00
2024-03-04T23:58:09.834Z,25.63
